Time;durP1;ratioP1;P1;durP2;ratioP2;P2;SDS_P1;SDS_P2;PMS_P1;PMS_P2;Temp;Humidity;BMP_temperature;BMP_pressure;BME280_temperature;BME280_humidity;BME280_pressure;Samples;Min_cycle;Max_cycle;Signal;HPM_P1;HPM_P2
2021/04/07 00:02:08;;;;;;;4.95;1.65;;;1.30;99.90;;;;;;5014927;28;20240;-65
2021/04/07 00:04:36;;;;;;;4.50;1.77;;;1.40;99.90;;;;;;5031932;28;20220;-64
2021/04/07 00:07:04;;;;;;;1.92;1.23;;;1.40;99.90;;;;;;5031451;28;20232;-65
2021/04/07 00:09:31;;;;;;;1.90;1.67;;;1.40;99.90;;;;;;5031480;28;20202;-66
2021/04/07 00:11:58;;;;;;;8.68;2.20;;;1.50;99.90;;;;;;5031866;28;20197;-66
2021/04/07 00:14:25;;;;;;;2.45;1.02;;;1.50;99.90;;;;;;5031573;28;20245;-66
2021/04/07 00:16:52;;;;;;;2.20;1.73;;;1.50;99.90;;;;;;5032422;28;20209;-66
2021/04/07 00:19:19;;;;;;;1.52;1.05;;;1.50;99.90;;;;;;5032747;28;20231;-66
2021/04/07 00:21:47;;;;;;;14.57;2.65;;;1.50;99.90;;;;;;5031687;28;20564;-65
2021/04/07 00:24:15;;;;;;;19.80;1.83;;;1.50;99.90;;;;;;5030266;28;20190;-66
2021/04/07 00:26:42;;;;;;;2.50;1.70;;;1.50;99.90;;;;;;5016245;28;20217;-65
2021/04/07 00:29:09;;;;;;;2.22;0.95;;;1.50;99.90;;;;;;5033747;28;20236;-65
2021/04/07 00:31:36;;;;;;;1.73;1.30;;;1.50;99.90;;;;;;5016226;28;20236;-65
2021/04/07 00:34:03;;;;;;;1.20;1.00;;;1.50;99.90;;;;;;5034274;28;20174;-65
2021/04/07 00:36:30;;;;;;;0.95;0.85;;;1.40;99.90;;;;;;5034075;28;20202;-65
2021/04/07 00:38:58;;;;;;;9.70;1.80;;;1.50;99.90;;;;;;5033814;28;20197;-65
2021/04/07 00:41:25;;;;;;;1.45;0.95;;;1.50;99.90;;;;;;5033994;28;20170;-66
2021/04/07 00:43:52;;;;;;;1.40;1.30;;;1.40;99.90;;;;;;5033830;28;20184;-65
2021/04/07 00:46:19;;;;;;;1.67;1.58;;;1.40;99.90;;;;;;5034169;28;20197;-65
2021/04/07 00:48:46;;;;;;;1.67;1.45;;;1.40;99.90;;;;;;5033953;28;20188;-65
2021/04/07 00:51:14;;;;;;;1.40;1.30;;;1.30;99.90;;;;;;5033618;28;20190;-66
2021/04/07 00:53:42;;;;;;;1.85;1.75;;;1.30;99.90;;;;;;5015794;28;20198;-66
2021/04/07 00:56:10;;;;;;;1.70;1.40;;;1.30;99.90;;;;;;5033682;28;20249;-67
2021/04/07 00:58:37;;;;;;;1.60;1.20;;;1.40;99.90;;;;;;5033776;28;20182;-65
2021/04/07 01:01:04;;;;;;;7.35;3.05;;;1.40;99.90;;;;;;5033477;28;20514;-66
2021/04/07 01:03:32;;;;;;;9.43;2.67;;;1.40;99.90;;;;;;5033353;28;20174;-65
2021/04/07 01:05:59;;;;;;;3.47;1.50;;;1.30;99.90;;;;;;5033588;28;20204;-64
2021/04/07 01:08:27;;;;;;;4.13;1.55;;;1.30;99.90;;;;;;5033189;28;20213;-65
2021/04/07 01:10:54;;;;;;;2.30;1.42;;;1.40;99.90;;;;;;5033559;28;20178;-65
2021/04/07 01:13:22;;;;;;;7.50;1.63;;;1.40;99.90;;;;;;5033582;28;20243;-66
2021/04/07 01:15:49;;;;;;;2.17;1.40;;;1.30;99.90;;;;;;5033936;28;20185;-64
2021/04/07 01:18:16;;;;;;;3.08;1.88;;;1.40;99.90;;;;;;5033549;28;20236;-65
2021/04/07 01:20:43;;;;;;;2.03;1.35;;;1.30;1.00;;;;;;5033284;28;20173;-66
2021/04/07 01:23:11;;;;;;;2.72;1.30;;;1.30;1.00;;;;;;5033210;28;20174;-65
2021/04/07 01:25:40;;;;;;;4.03;2.10;;;1.30;1.00;;;;;;5033548;28;20216;-66
2021/04/07 01:28:07;;;;;;;1.50;1.40;;;1.40;99.90;;;;;;5033259;28;20209;-64
2021/04/07 01:30:45;;;;;;;1.63;1.20;;;1.40;1.00;;;;;;5032891;28;20181;-65
2021/04/07 01:33:21;;;;;;;1.73;1.63;;;1.40;99.90;;;;;;5033174;28;20185;-65
2021/04/07 01:35:49;;;;;;;2.50;2.17;;;1.40;1.00;;;;;;5032691;28;20260;-64
2021/04/07 01:38:16;;;;;;;2.25;1.70;;;1.40;1.00;;;;;;5032323;28;20209;-65
2021/04/07 01:40:46;;;;;;;5.20;2.00;;;1.40;99.90;;;;;;5033434;28;20207;-64
2021/04/07 01:43:16;;;;;;;7.65;2.50;;;1.30;99.90;;;;;;5033296;28;20658;-64
2021/04/07 01:45:45;;;;;;;1.80;1.70;;;1.40;99.90;;;;;;5033017;28;20736;-64
2021/04/07 01:48:13;;;;;;;1.40;1.05;;;1.30;99.90;;;;;;5033399;28;20221;-65
2021/04/07 01:50:41;;;;;;;2.88;2.00;;;1.30;99.90;;;;;;5032802;28;20169;-65
2021/04/07 01:53:09;;;;;;;1.83;1.50;;;1.30;99.90;;;;;;5032458;28;20177;-65
2021/04/07 01:55:36;;;;;;;3.22;1.30;;;1.30;99.90;;;;;;5032566;28;20169;-64
2021/04/07 01:58:05;;;;;;;1.00;0.90;;;1.30;1.00;;;;;;5032774;28;20578;-66
2021/04/07 02:00:33;;;;;;;1.98;1.88;;;1.30;1.00;;;;;;5032632;28;20186;-64
2021/04/07 02:03:01;;;;;;;1.85;1.70;;;1.30;99.90;;;;;;5032582;28;20224;-64
2021/04/07 02:05:28;;;;;;;3.05;1.73;;;1.40;99.90;;;;;;5032631;28;20675;-65
2021/04/07 02:07:55;;;;;;;6.43;1.20;;;1.40;1.00;;;;;;5033156;28;20220;-65
2021/04/07 02:10:23;;;;;;;4.60;1.70;;;1.40;1.00;;;;;;5032802;28;20261;-64
2021/04/07 02:12:51;;;;;;;2.78;1.55;;;1.40;1.00;;;;;;5014930;28;20190;-65
2021/04/07 02:15:20;;;;;;;2.97;2.00;;;1.40;1.00;;;;;;5033138;28;20173;-65
2021/04/07 02:17:47;;;;;;;3.30;2.83;;;1.30;1.00;;;;;;5015287;28;20724;-64
2021/04/07 02:20:15;;;;;;;1.98;1.58;;;1.40;99.90;;;;;;5032246;28;20205;-65
2021/04/07 02:22:43;;;;;;;5.95;1.83;;;1.30;1.00;;;;;;5014742;28;20194;-65
2021/04/07 02:25:11;;;;;;;2.10;1.90;;;1.30;1.00;;;;;;5032147;28;20535;-65
2021/04/07 02:27:39;;;;;;;2.17;1.50;;;1.40;99.90;;;;;;5032173;28;20213;-64
2021/04/07 02:30:11;;;;;;;3.03;1.45;;;1.30;99.90;;;;;;5032209;28;20348;-64
2021/04/07 02:32:39;;;;;;;5.25;1.80;;;1.40;99.90;;;;;;5031938;28;20236;-65
2021/04/07 02:35:07;;;;;;;6.15;1.48;;;1.50;99.90;;;;;;5032160;28;20170;-64
2021/04/07 02:37:35;;;;;;;1.58;1.02;;;1.50;99.90;;;;;;5032128;28;20563;-64
2021/04/07 02:40:02;;;;;;;4.40;1.73;;;1.40;99.90;;;;;;5032083;28;20177;-65
2021/04/07 02:42:29;;;;;;;1.98;1.20;;;1.50;99.90;;;;;;5032229;28;20185;-65
2021/04/07 02:44:56;;;;;;;2.08;1.88;;;1.50;99.90;;;;;;5031988;28;20201;-65
2021/04/07 02:47:23;;;;;;;1.35;1.00;;;1.40;99.90;;;;;;5031523;28;20271;-65
2021/04/07 02:49:51;;;;;;;4.93;3.70;;;1.40;99.90;;;;;;5031750;28;20178;-65
2021/04/07 02:52:20;;;;;;;4.38;1.40;;;1.40;99.90;;;;;;5031635;28;20180;-66
2021/04/07 02:54:47;;;;;;;6.22;1.90;;;1.30;99.90;;;;;;5031524;28;20592;-65
2021/04/07 02:57:14;;;;;;;2.13;1.50;;;1.30;99.90;;;;;;5031729;28;20586;-65
2021/04/07 02:59:41;;;;;;;4.25;1.42;;;1.30;99.90;;;;;;5031551;28;20177;-64
2021/04/07 03:02:09;;;;;;;4.90;2.38;;;1.30;99.90;;;;;;5032069;28;20181;-65
2021/04/07 03:04:36;;;;;;;3.33;1.60;;;1.30;99.90;;;;;;5032240;28;20231;-65
2021/04/07 03:07:04;;;;;;;3.67;1.95;;;1.30;99.90;;;;;;5031810;28;20221;-65
2021/04/07 03:09:31;;;;;;;1.92;1.38;;;1.30;99.90;;;;;;5031568;28;20189;-65
2021/04/07 03:11:58;;;;;;;2.20;1.25;;;1.30;99.90;;;;;;5032090;28;20169;-65
2021/04/07 03:14:25;;;;;;;1.55;1.40;;;1.30;99.90;;;;;;5015138;28;20685;-65
2021/04/07 03:16:53;;;;;;;2.30;1.80;;;1.40;99.90;;;;;;5014556;28;20213;-65
2021/04/07 03:19:20;;;;;;;2.85;1.83;;;1.40;99.90;;;;;;5014326;28;20185;-65
2021/04/07 03:21:47;;;;;;;2.67;1.55;;;1.40;99.90;;;;;;5014240;28;20189;-64
2021/04/07 03:24:15;;;;;;;2.05;1.50;;;1.40;99.90;;;;;;5031074;28;20527;-65
2021/04/07 03:26:42;;;;;;;3.60;2.22;;;1.30;99.90;;;;;;5031032;28;20288;-65
2021/04/07 03:29:09;;;;;;;2.28;1.42;;;1.30;99.90;;;;;;5031039;28;20288;-65
2021/04/07 03:31:37;;;;;;;3.30;1.90;;;1.30;99.90;;;;;;5031017;28;20194;-64
2021/04/07 03:34:04;;;;;;;6.35;2.75;;;1.40;99.90;;;;;;5031046;28;20603;-66
2021/04/07 03:36:31;;;;;;;3.30;1.58;;;1.40;99.90;;;;;;5030828;28;20206;-65
2021/04/07 03:38:58;;;;;;;6.22;1.83;;;1.30;99.90;;;;;;5031152;28;20244;-65
2021/04/07 03:41:26;;;;;;;2.10;1.63;;;1.30;99.90;;;;;;5031206;28;20173;-65
2021/04/07 03:43:53;;;;;;;2.30;1.60;;;1.40;99.90;;;;;;5030947;28;20170;-65
2021/04/07 03:46:20;;;;;;;1.70;1.30;;;1.50;99.90;;;;;;5030704;28;20229;-65
2021/04/07 03:48:47;;;;;;;10.15;2.50;;;1.50;99.90;;;;;;5030609;28;20185;-65
2021/04/07 03:51:14;;;;;;;3.17;2.08;;;1.50;99.90;;;;;;5030804;28;20627;-65
2021/04/07 03:53:41;;;;;;;3.85;2.25;;;1.40;99.90;;;;;;5030734;28;20248;-65
2021/04/07 03:56:09;;;;;;;2.95;1.85;;;1.40;99.90;;;;;;5030699;28;20166;-65
2021/04/07 03:58:36;;;;;;;7.25;2.30;;;1.40;99.90;;;;;;5012926;28;20216;-64
2021/04/07 04:01:04;;;;;;;6.30;2.03;;;1.40;99.90;;;;;;5034101;28;20309;-65
2021/04/07 04:03:32;;;;;;;4.65;2.65;;;1.40;99.90;;;;;;5034626;28;20631;-65
2021/04/07 04:05:59;;;;;;;3.63;2.10;;;1.40;99.90;;;;;;5034602;28;20198;-65
2021/04/07 04:08:27;;;;;;;5.18;2.65;;;1.40;99.90;;;;;;5035228;28;20301;-64
2021/04/07 04:10:55;;;;;;;2.50;2.25;;;1.40;99.90;;;;;;5034967;28;20185;-65
2021/04/07 04:13:23;;;;;;;2.95;1.98;;;1.40;99.90;;;;;;5034560;28;20224;-65
2021/04/07 04:15:51;;;;;;;2.92;1.77;;;1.50;99.90;;;;;;5034629;28;20174;-65
2021/04/07 04:18:18;;;;;;;2.45;1.75;;;1.50;99.90;;;;;;5034093;28;20202;-65
2021/04/07 04:20:45;;;;;;;5.38;2.40;;;1.50;99.90;;;;;;5034518;28;20178;-65
2021/04/07 04:23:12;;;;;;;5.15;2.88;;;1.50;99.90;;;;;;5034462;28;20642;-65
2021/04/07 04:25:39;;;;;;;2.67;2.15;;;1.50;99.90;;;;;;5034163;28;20204;-65
2021/04/07 04:28:06;;;;;;;2.53;2.22;;;1.60;99.90;;;;;;5034390;28;20263;-66
2021/04/07 04:30:33;;;;;;;3.85;2.08;;;1.60;99.90;;;;;;5033978;28;20649;-64
2021/04/07 04:33:01;;;;;;;3.38;3.08;;;1.60;99.90;;;;;;5034016;28;20189;-66
2021/04/07 04:35:28;;;;;;;3.80;1.75;;;1.50;99.90;;;;;;5033770;28;20204;-66
2021/04/07 04:37:56;;;;;;;2.70;1.58;;;1.50;99.90;;;;;;5034130;28;20213;-65
2021/04/07 04:40:23;;;;;;;2.88;1.77;;;1.50;99.90;;;;;;5033995;28;20395;-65
2021/04/07 04:42:50;;;;;;;4.32;1.75;;;1.40;99.90;;;;;;5034105;28;20186;-65
2021/04/07 04:45:18;;;;;;;5.53;3.08;;;1.40;99.90;;;;;;5034032;28;20594;-65
2021/04/07 04:47:45;;;;;;;7.72;2.70;;;1.40;99.90;;;;;;5033928;28;20213;-65
2021/04/07 04:50:14;;;;;;;3.72;2.20;;;1.40;99.90;;;;;;5034259;28;20185;-66
2021/04/07 04:52:41;;;;;;;9.35;2.22;;;1.40;99.90;;;;;;5034031;28;20182;-64
2021/04/07 04:55:09;;;;;;;2.35;1.67;;;1.40;99.90;;;;;;5034366;28;20177;-66
2021/04/07 04:57:37;;;;;;;12.57;4.00;;;1.40;99.90;;;;;;5033789;28;20212;-65
2021/04/07 05:00:06;;;;;;;2.80;2.60;;;1.50;99.90;;;;;;5034694;28;20543;-65
2021/04/07 05:02:33;;;;;;;16.70;2.05;;;1.50;99.90;;;;;;5015851;28;20185;-65
2021/04/07 05:05:00;;;;;;;4.28;2.53;;;1.50;99.90;;;;;;5033954;28;20182;-64
2021/04/07 05:07:28;;;;;;;3.67;2.30;;;1.60;99.90;;;;;;5034051;28;20215;-65
2021/04/07 05:09:55;;;;;;;7.63;2.35;;;1.60;99.90;;;;;;5033883;28;20185;-65
2021/04/07 05:12:22;;;;;;;2.53;1.92;;;1.50;99.90;;;;;;5032248;28;20549;-65
2021/04/07 05:14:50;;;;;;;3.67;1.92;;;1.50;99.90;;;;;;5033766;28;20180;-66
2021/04/07 05:17:18;;;;;;;2.97;1.70;;;1.60;99.90;;;;;;5033329;28;20530;-65
2021/04/07 05:19:46;;;;;;;5.10;3.08;;;1.70;99.90;;;;;;5034357;28;20373;-65
2021/04/07 05:22:16;;;;;;;5.85;2.30;;;1.60;99.90;;;;;;5033723;28;20197;-65
2021/04/07 05:24:45;;;;;;;4.20;3.08;;;1.60;99.90;;;;;;5033311;28;20192;-64
2021/04/07 05:27:12;;;;;;;3.65;2.75;;;1.60;99.90;;;;;;5033257;28;20587;-66
2021/04/07 05:29:39;;;;;;;2.40;1.67;;;1.60;99.90;;;;;;5032924;28;20184;-66
2021/04/07 05:32:07;;;;;;;2.95;2.05;;;1.60;1.00;;;;;;5032767;28;20630;-65
2021/04/07 05:34:34;;;;;;;3.38;1.85;;;1.60;1.00;;;;;;5015266;28;20267;-66
2021/04/07 05:37:02;;;;;;;8.43;3.28;;;1.60;1.00;;;;;;5032910;28;20206;-65
2021/04/07 05:39:29;;;;;;;13.00;4.60;;;1.70;1.00;;;;;;5032807;28;20178;-65
2021/04/07 05:41:57;;;;;;;4.15;2.30;;;1.60;1.00;;;;;;5033065;28;20178;-68
2021/04/07 05:44:24;;;;;;;2.55;2.25;;;1.60;1.00;;;;;;5033046;28;20197;-64
2021/04/07 05:46:51;;;;;;;2.65;2.30;;;1.60;1.00;;;;;;5032884;28;20217;-64
2021/04/07 05:49:19;;;;;;;3.35;2.47;;;1.70;1.00;;;;;;5032823;28;20704;-64
2021/04/07 05:51:46;;;;;;;4.82;1.50;;;1.80;1.00;;;;;;5014608;28;20670;-66
2021/04/07 05:54:13;;;;;;;8.02;2.10;;;1.80;1.00;;;;;;5032601;28;20174;-65
2021/04/07 05:56:40;;;;;;;6.40;2.30;;;1.80;1.00;;;;;;5032190;28;20201;-65
2021/04/07 05:59:08;;;;;;;7.55;2.92;;;1.80;1.00;;;;;;5032925;28;20666;-65
2021/04/07 06:01:35;;;;;;;2.35;1.65;;;1.70;1.00;;;;;;5034984;28;20213;-65
2021/04/07 06:04:02;;;;;;;1.60;1.50;;;1.70;1.00;;;;;;5033662;28;20178;-65
2021/04/07 06:06:30;;;;;;;3.97;2.22;;;1.70;99.90;;;;;;5032401;28;20224;-65
2021/04/07 06:08:57;;;;;;;4.20;1.92;;;1.70;31.50;;;;;;5032476;28;20215;-65
2021/04/07 06:11:24;;;;;;;8.27;2.35;;;1.80;98.30;;;;;;5032147;28;20182;-65
2021/04/07 06:13:51;;;;;;;2.35;2.00;;;2.00;94.20;;;;;;5031987;28;20260;-65
2021/04/07 06:16:19;;;;;;;6.18;2.53;;;1.90;1.00;;;;;;5032024;28;20184;-66
2021/04/07 06:18:47;;;;;;;3.58;2.85;;;2.10;1.00;;;;;;5032289;28;20178;-65
2021/04/07 06:21:15;;;;;;;7.15;2.38;;;2.10;1.00;;;;;;5014236;28;20247;-65
2021/04/07 06:23:42;;;;;;;3.50;1.77;;;2.00;1.00;;;;;;5031737;28;20174;-65
2021/04/07 06:26:09;;;;;;;4.93;1.90;;;1.90;1.00;;;;;;5031955;28;20208;-65
2021/04/07 06:28:36;;;;;;;3.03;2.55;;;2.00;1.00;;;;;;5018061;28;20212;-65
2021/04/07 06:31:04;;;;;;;17.23;3.50;;;2.00;73.30;;;;;;5033258;28;20568;-67
2021/04/07 06:33:33;;;;;;;2.97;1.90;;;2.20;1.00;;;;;;5034353;28;20178;-64
2021/04/07 06:36:03;;;;;;;2.70;1.95;;;2.30;32.20;;;;;;5034495;28;20237;-65
2021/04/07 06:38:32;;;;;;;6.63;2.22;;;2.20;1.00;;;;;;5033455;28;20287;-66
2021/04/07 06:41:00;;;;;;;8.25;2.13;;;2.20;1.00;;;;;;5032228;28;20181;-66
2021/04/07 06:43:29;;;;;;;8.77;2.45;;;2.20;1.00;;;;;;5033209;28;20189;-68
2021/04/07 06:45:56;;;;;;;8.88;2.55;;;2.20;15.00;;;;;;5033631;28;20201;-67
2021/04/07 06:48:24;;;;;;;12.00;2.28;;;2.30;1.00;;;;;;5032942;28;20217;-65
2021/04/07 06:50:54;;;;;;;3.75;1.85;;;2.30;1.00;;;;;;5034572;28;20193;-67
2021/04/07 06:53:24;;;;;;;8.70;1.70;;;2.30;73.70;;;;;;5038291;28;20177;-65
2021/04/07 06:55:52;;;;;;;2.00;1.42;;;2.30;1.00;;;;;;5037222;28;20173;-64
2021/04/07 06:58:19;;;;;;;2.85;2.20;;;2.40;1.00;;;;;;5037388;28;20217;-65
2021/04/07 07:00:47;;;;;;;5.15;2.30;;;2.40;1.00;;;;;;5036622;28;20659;-65
2021/04/07 07:03:17;;;;;;;3.28;2.55;;;2.50;1.00;;;;;;5037449;28;20174;-67
2021/04/07 07:05:46;;;;;;;4.20;2.85;;;2.60;1.00;;;;;;5035795;28;20198;-66
2021/04/07 07:08:15;;;;;;;3.63;2.63;;;2.80;99.90;;;;;;5037138;28;20241;-65
2021/04/07 07:10:44;;;;;;;6.55;2.10;;;2.30;1.00;;;;;;5037968;28;20177;-65
2021/04/07 07:13:15;;;;;;;6.22;2.97;;;1.70;1.00;;;;;;5035438;28;20182;-66
2021/04/07 07:15:43;;;;;;;11.80;3.15;;;1.30;99.90;;;;;;5032175;28;20173;-65
2021/04/07 07:18:10;;;;;;;8.63;3.35;;;1.30;99.90;;;;;;5031475;28;20201;-66
2021/04/07 07:20:39;;;;;;;16.13;4.05;;;1.40;99.90;;;;;;5032398;28;20196;-65
2021/04/07 07:23:06;;;;;;;6.30;3.65;;;1.50;99.90;;;;;;5031605;28;20194;-65
2021/04/07 07:25:34;;;;;;;5.68;3.67;;;1.70;99.90;;;;;;5031571;28;20205;-65
2021/04/07 07:28:04;;;;;;;4.82;2.50;;;1.70;99.90;;;;;;5015977;28;20210;-66
2021/04/07 07:30:41;;;;;;;8.00;2.25;;;1.90;1.00;;;;;;5033576;28;20204;-66
2021/04/07 07:33:16;;;;;;;5.03;2.25;;;2.30;99.90;;;;;;5035057;28;20213;-65
2021/04/07 07:35:45;;;;;;;10.23;3.92;;;2.50;99.90;;;;;;5030735;28;20241;-65
2021/04/07 07:38:19;;;;;;;2.63;2.20;;;2.50;1.00;;;;;;5031131;28;20240;-64
2021/04/07 07:40:47;;;;;;;2.95;1.67;;;2.60;99.90;;;;;;5034247;28;20181;-65
2021/04/07 07:43:15;;;;;;;4.00;2.28;;;2.70;99.90;;;;;;5032045;28;20181;-66
2021/04/07 07:45:43;;;;;;;7.53;2.70;;;2.60;99.90;;;;;;5031730;28;20181;-66
2021/04/07 07:48:15;;;;;;;5.20;1.73;;;2.70;99.90;;;;;;5032448;28;20217;-67
2021/04/07 07:50:44;;;;;;;6.72;3.00;;;2.70;99.90;;;;;;5014663;28;20240;-66
2021/04/07 07:53:17;;;;;;;3.85;2.53;;;2.80;99.90;;;;;;5032261;28;20282;-64
2021/04/07 07:55:46;;;;;;;3.42;2.63;;;3.10;99.90;;;;;;5031307;28;20666;-66
2021/04/07 07:58:14;;;;;;;4.50;2.95;;;3.20;99.90;;;;;;5031333;28;20227;-67
2021/04/07 08:00:41;;;;;;;7.22;2.13;;;3.20;99.90;;;;;;5031815;28;20678;-66
2021/04/07 08:03:11;;;;;;;4.75;2.80;;;3.00;99.90;;;;;;5032376;28;20182;-65
2021/04/07 08:05:39;;;;;;;6.97;1.85;;;2.80;99.90;;;;;;5032088;28;20190;-67
2021/04/07 08:08:07;;;;;;;6.90;2.55;;;2.70;99.90;;;;;;5013563;28;20315;-65
2021/04/07 08:10:40;;;;;;;2.28;1.85;;;3.10;99.90;;;;;;5014086;28;20277;-65
2021/04/07 08:13:10;;;;;;;4.50;2.67;;;3.60;99.90;;;;;;5013651;28;20197;-67
2021/04/07 08:15:38;;;;;;;13.18;3.38;;;3.80;99.90;;;;;;5031214;28;20642;-65
2021/04/07 08:18:07;;;;;;;11.35;2.65;;;4.00;99.90;;;;;;5014079;28;20217;-66
2021/04/07 08:20:38;;;;;;;6.97;3.30;;;4.10;99.90;;;;;;5033278;28;20200;-66
2021/04/07 08:23:08;;;;;;;4.32;2.03;;;3.90;99.90;;;;;;5031473;28;20192;-67
2021/04/07 08:25:36;;;;;;;8.57;2.67;;;3.70;99.90;;;;;;5012511;28;20277;-68
2021/04/07 08:28:07;;;;;;;6.35;3.55;;;3.80;99.90;;;;;;5013059;28;20245;-65
2021/04/07 08:30:34;;;;;;;7.90;2.05;;;3.90;99.90;;;;;;5013947;28;20193;-68
2021/04/07 08:33:03;;;;;;;6.75;2.08;;;4.00;99.90;;;;;;5030602;28;20723;-66
2021/04/07 08:35:30;;;;;;;6.28;3.17;;;4.00;99.90;;;;;;5030464;28;20190;-67
2021/04/07 08:37:59;;;;;;;4.72;2.42;;;4.20;99.90;;;;;;5032076;28;20220;-66
2021/04/07 08:40:40;;;;;;;4.63;2.30;;;4.30;99.90;;;;;;5033756;28;20297;-67
2021/04/07 08:43:09;;;;;;;10.02;2.97;;;4.50;99.90;;;;;;5033021;28;20181;-64
2021/04/07 08:45:44;;;;;;;9.13;1.77;;;4.60;99.90;;;;;;5015371;28;20196;-68
2021/04/07 08:48:21;;;;;;;13.68;2.85;;;4.70;99.90;;;;;;5036434;28;20236;-68
2021/04/07 08:50:50;;;;;;;13.02;2.67;;;4.80;98.70;;;;;;5035185;28;20180;-66
2021/04/07 08:53:18;;;;;;;1.90;1.70;;;4.60;99.90;;;;;;5018609;28;20185;-67
2021/04/07 08:55:53;;;;;;;6.88;1.30;;;4.80;99.90;;;;;;5035625;28;20216;-67
2021/04/07 08:58:25;;;;;;;4.10;1.55;;;4.70;99.60;;;;;;5018334;28;20223;-66
2021/04/07 09:00:55;;;;;;;7.60;1.60;;;4.50;99.90;;;;;;5035420;28;20186;-70
2021/04/07 09:03:26;;;;;;;5.07;1.52;;;4.20;99.90;;;;;;5034558;28;20182;-67
2021/04/07 09:05:54;;;;;;;3.60;2.10;;;4.30;98.90;;;;;;5034413;28;20170;-69
2021/04/07 09:08:22;;;;;;;2.22;1.13;;;4.50;99.80;;;;;;5034177;28;20296;-66
2021/04/07 09:10:52;;;;;;;5.28;2.17;;;4.70;99.90;;;;;;5034382;28;20182;-65
2021/04/07 09:13:22;;;;;;;2.97;1.88;;;4.90;99.90;;;;;;5034662;28;20265;-66
2021/04/07 09:16:02;;;;;;;5.22;1.30;;;4.60;99.90;;;;;;5017145;28;20548;-67
2021/04/07 09:18:36;;;;;;;1.98;1.15;;;4.50;99.90;;;;;;5034769;28;20212;-67
2021/04/07 09:21:06;;;;;;;6.60;2.25;;;4.50;99.90;;;;;;5034404;28;20184;-69
2021/04/07 09:23:35;;;;;;;3.15;1.60;;;4.70;99.90;;;;;;5035231;28;20189;-69
2021/04/07 09:26:10;;;;;;;5.15;1.67;;;5.00;99.90;;;;;;5036951;28;20197;-68
2021/04/07 09:28:40;;;;;;;6.07;1.60;;;5.10;99.90;;;;;;5035932;28;20174;-66
2021/04/07 09:31:13;;;;;;;5.72;2.20;;;5.30;99.90;;;;;;5035406;28;20196;-66
2021/04/07 09:33:43;;;;;;;3.40;1.60;;;5.20;99.90;;;;;;5017061;28;20193;-68
2021/04/07 09:36:12;;;;;;;7.18;1.42;;;5.50;99.90;;;;;;5034390;28;20236;-67
2021/04/07 09:38:44;;;;;;;10.52;2.83;;;5.80;99.90;;;;;;5034458;28;20666;-68
2021/04/07 09:41:12;;;;;;;2.67;1.48;;;5.70;99.90;;;;;;5035646;28;20197;-68
2021/04/07 09:43:41;;;;;;;6.78;1.38;;;5.60;99.90;;;;;;5036306;28;20189;-69
2021/04/07 09:46:09;;;;;;;3.25;1.20;;;5.60;99.90;;;;;;5017565;28;20801;-67
2021/04/07 09:48:48;;;;;;;4.88;2.50;;;5.70;99.90;;;;;;5034683;28;20242;-65
2021/04/07 09:51:27;;;;;;;2.10;1.27;;;5.50;99.90;;;;;;5035382;28;20177;-67
2021/04/07 09:54:19;;;;;;;5.38;2.05;;;5.50;99.90;;;;;;5034630;28;20178;-66
2021/04/07 09:56:55;;;;;;;3.85;1.90;;;5.60;99.90;;;;;;5034745;28;20436;-68
2021/04/07 09:59:33;;;;;;;4.18;2.00;;;5.50;99.90;;;;;;5033661;28;20646;-67
2021/04/07 10:02:01;;;;;;;8.35;1.92;;;5.50;99.90;;;;;;5033457;28;20185;-66
2021/04/07 10:04:31;;;;;;;4.75;1.92;;;5.70;99.90;;;;;;5033397;28;20247;-66
2021/04/07 10:07:10;;;;;;;2.10;1.10;;;5.90;99.90;;;;;;5014984;28;20248;-66
2021/04/07 10:09:38;;;;;;;3.97;2.10;;;5.60;99.90;;;;;;5033389;28;20178;-65
2021/04/07 10:12:07;;;;;;;9.70;1.63;;;5.70;99.90;;;;;;5033770;28;20701;-65
2021/04/07 10:14:35;;;;;;;5.90;1.92;;;5.80;99.90;;;;;;5034210;28;20189;-67
2021/04/07 10:17:11;;;;;;;1.33;1.20;;;6.00;99.90;;;;;;5038216;28;20197;-66
2021/04/07 10:19:40;;;;;;;2.75;1.63;;;6.60;99.90;;;;;;5037513;28;20188;-66
2021/04/07 10:22:14;;;;;;;4.00;1.70;;;6.70;99.90;;;;;;5019901;28;20185;-67
2021/04/07 10:24:42;;;;;;;4.35;1.20;;;6.60;99.90;;;;;;5035530;28;20173;-67
2021/04/07 10:27:10;;;;;;;2.47;1.70;;;6.50;99.90;;;;;;5034248;28;20271;-66
2021/04/07 10:29:38;;;;;;;2.67;1.98;;;6.10;99.90;;;;;;5033681;28;20547;-65
2021/04/07 10:32:13;;;;;;;2.67;1.50;;;5.70;99.90;;;;;;5033554;28;20206;-65
2021/04/07 10:34:41;;;;;;;4.18;2.03;;;5.80;99.90;;;;;;5033416;28;20180;-66
2021/04/07 10:37:12;;;;;;;3.03;2.10;;;5.80;99.90;;;;;;5034131;28;20216;-67
2021/04/07 10:39:41;;;;;;;6.10;1.40;;;5.90;99.90;;;;;;5035823;28;20193;-64
2021/04/07 10:42:09;;;;;;;4.13;1.35;;;5.80;99.90;;;;;;5035406;28;20710;-66
2021/04/07 10:44:37;;;;;;;4.53;1.85;;;6.00;99.90;;;;;;5038917;28;20197;-67
2021/04/07 10:47:15;;;;;;;5.90;1.45;;;5.90;99.90;;;;;;5036735;28;20216;-66
2021/04/07 10:49:55;;;;;;;4.65;1.67;;;5.40;99.90;;;;;;5037255;28;20513;-68
2021/04/07 10:52:33;;;;;;;2.80;1.83;;;5.30;99.90;;;;;;5037089;28;20177;-67
2021/04/07 10:55:02;;;;;;;2.85;1.60;;;5.20;99.90;;;;;;5035912;28;20192;-66
2021/04/07 10:57:34;;;;;;;5.95;1.85;;;5.50;99.90;;;;;;5036652;28;20235;-67
2021/04/07 11:00:04;;;;;;;2.50;2.30;;;5.80;99.90;;;;;;5036204;28;20240;-67
2021/04/07 11:02:44;;;;;;;5.47;3.53;;;5.70;99.90;;;;;;5032769;28;20181;-66
2021/04/07 11:05:16;;;;;;;5.75;2.00;;;5.50;99.90;;;;;;5032492;28;20193;-67
2021/04/07 11:07:44;;;;;;;3.33;1.65;;;5.40;99.90;;;;;;5014260;28;20231;-66
2021/04/07 11:10:13;;;;;;;3.30;2.10;;;5.70;99.90;;;;;;5030870;28;20189;-66
2021/04/07 11:12:42;;;;;;;2.65;1.80;;;5.80;99.90;;;;;;5032317;28;20292;-66
2021/04/07 11:15:19;;;;;;;3.60;1.45;;;5.90;99.90;;;;;;5064837;23;20280;-82
2021/04/07 11:17:57;;;;;;;3.85;1.52;;;5.80;99.90;;;;;;5067523;28;20277;-82
2021/04/07 11:21:06;;;;;;;5.75;1.75;;;5.50;99.90;;;;;;5048317;28;20202;-82
2021/04/07 11:24:20;;;;;;;4.40;1.77;;;5.50;99.90;;;;;;5066273;28;20177;-80
2021/04/07 11:31:12;;;;;;;7.95;1.70;;;5.60;99.90;;;;;;5021814;28;20252;-81
2021/04/07 11:34:13;;;;;;;1.85;1.10;;;5.40;99.90;;;;;;5053848;28;20197;-81
2021/04/07 11:40:45;;;;;;;4.13;2.22;;;5.80;99.90;;;;;;5013469;28;20166;-81
2021/04/07 11:47:10;;;;;;;2.17;1.40;;;5.50;99.90;;;;;;5016917;28;20209;-83
2021/04/07 11:51:02;;;;;;;4.10;1.35;;;5.60;99.90;;;;;;5033451;28;20242;-86
2021/04/07 11:54:29;;;;;;;2.78;1.25;;;6.00;99.90;;;;;;5017530;28;20254;-83
2021/04/07 11:57:15;;;;;;;1.95;1.30;;;5.70;99.90;;;;;;5010728;28;20218;-82
2021/04/07 11:59:48;;;;;;;3.03;1.33;;;5.40;99.90;;;;;;5008867;28;20201;-84
2021/04/07 12:05:58;;;;;;;13.00;1.92;;;6.00;99.90;;;;;;5007898;28;20208;-83
2021/04/07 12:08:30;;;;;;;1.65;1.25;;;6.10;99.90;;;;;;5055367;22;20616;-67
2021/04/07 12:11:00;;;;;;;10.23;1.88;;;6.00;99.90;;;;;;5053537;28;20177;-65
2021/04/07 12:13:27;;;;;;;4.03;3.72;;;6.00;99.90;;;;;;5032200;28;20202;-65
2021/04/07 12:15:56;;;;;;;3.35;2.28;;;6.00;99.90;;;;;;5050072;28;20614;-68
2021/04/07 12:18:24;;;;;;;5.80;1.38;;;5.90;99.90;;;;;;5042038;28;20762;-68
2021/04/07 12:20:52;;;;;;;4.22;1.33;;;5.80;99.90;;;;;;5060051;28;20181;-67
2021/04/07 12:23:19;;;;;;;3.05;1.60;;;6.10;99.90;;;;;;5061612;28;20191;-69
2021/04/07 12:25:47;;;;;;;4.10;1.50;;;6.50;99.90;;;;;;5059621;28;20200;-67
2021/04/07 12:28:15;;;;;;;4.40;1.13;;;6.60;99.90;;;;;;5061244;28;20221;-67
2021/04/07 12:30:49;;;;;;;5.25;1.30;;;6.50;99.90;;;;;;5061170;28;20173;-68
2021/04/07 12:33:18;;;;;;;3.10;1.70;;;6.30;99.90;;;;;;5043084;28;20212;-67
2021/04/07 12:35:46;;;;;;;1.88;1.30;;;6.40;99.90;;;;;;5061090;28;20180;-67
2021/04/07 12:38:13;;;;;;;2.38;1.25;;;6.40;99.90;;;;;;5059796;28;20268;-67
2021/04/07 12:40:41;;;;;;;1.48;1.00;;;6.30;99.90;;;;;;5042227;28;20228;-67
2021/04/07 12:43:08;;;;;;;1.92;1.70;;;6.20;99.90;;;;;;5059937;28;20185;-68
2021/04/07 12:45:39;;;;;;;2.47;1.50;;;6.20;99.90;;;;;;5060589;28;20582;-67
2021/04/07 12:48:08;;;;;;;4.05;1.63;;;6.50;99.90;;;;;;5059740;28;20216;-67
2021/04/07 12:50:36;;;;;;;2.45;1.52;;;6.40;99.90;;;;;;5059207;28;20340;-67
2021/04/07 12:53:04;;;;;;;2.10;0.93;;;6.60;99.90;;;;;;5059312;28;20252;-66
2021/04/07 12:55:32;;;;;;;2.75;1.20;;;6.70;99.90;;;;;;5060557;28;20188;-67
2021/04/07 12:57:59;;;;;;;1.67;1.30;;;6.70;99.90;;;;;;5058868;28;20608;-67
2021/04/07 13:00:28;;;;;;;1.42;1.30;;;6.80;99.90;;;;;;5058338;28;20185;-67
2021/04/07 13:02:56;;;;;;;7.20;1.83;;;6.60;99.90;;;;;;5040075;28;20283;-67
2021/04/07 13:05:24;;;;;;;10.75;2.08;;;6.70;99.90;;;;;;5058464;28;20195;-68
2021/04/07 13:07:51;;;;;;;3.97;1.40;;;6.80;99.90;;;;;;5057344;28;20281;-68
2021/04/07 13:10:24;;;;;;;1.50;1.40;;;6.80;99.90;;;;;;5050484;28;20225;-69
2021/04/07 13:12:51;;;;;;;2.45;1.10;;;6.90;99.90;;;;;;5041605;28;20652;-67
2021/04/07 13:15:19;;;;;;;2.55;1.13;;;6.80;99.90;;;;;;5047542;28;20216;-67
2021/04/07 13:17:46;;;;;;;1.45;0.80;;;6.70;99.90;;;;;;5057367;28;20473;-68
2021/04/07 13:20:18;;;;;;;3.35;1.52;;;6.90;99.90;;;;;;5039379;28;20189;-68
2021/04/07 13:22:45;;;;;;;1.50;0.93;;;6.80;99.90;;;;;;5059580;28;20177;-67
2021/04/07 13:25:13;;;;;;;1.45;1.15;;;6.80;99.90;;;;;;5058733;28;20226;-68
2021/04/07 13:27:40;;;;;;;3.60;1.27;;;6.60;99.90;;;;;;5056946;28;20243;-66